No particular awareness of the weather is required.    There are no Weather-warnings


Meteo18 Weather Cam more information Meteo18 Weather Cam


Thunder radar more information blitzortung!


Rain radar more information rain snow radar


Visit our other weather sites:

Template documentation
and downloads

And another site



Weather Underground History page Text

Daily Summary for June 20, 2016 Units:  Metric    English   Both
« Previous Day
Next Day »
Daily Weekly Monthly Yearly Custom
  High: Low: Average:
Temperature: 19.9 °C 9.3 °C 14.8 °C
Dew Point: 15.8 °C 8.7 °C 13.1 °C
Humidity: 98 % 69 % 90 %
Wind Speed: 9.7 km/h 0.0 km/h 1.6 km/h
Wind Gust: 14.5 km/h - -
Wind:- - WSW
Pressure: 1025.3 hPa 1019.5 hPa -
Precipitation: 3.3 mm    
Historical Graphs
 
 
Tabular Data for June 20, 2016
Time Temperature Dew Point Pressure Wind Wind Speed Wind Gust Humidity Rainfall Rate (Hourly)
00:02 14.0 °C 12.9 °C 1025.3 hPa Calm     93 % 0.0 mm
00:07 14.0 °C 12.9 °C 1025.3 hPa Calm     93 % 0.0 mm
00:12 13.9 °C 12.8 °C 1024.9 hPa Calm     93 % 0.0 mm
00:22 13.7 °C 12.6 °C 1024.9 hPa Calm     93 % 0.0 mm
00:32 13.4 °C 12.3 °C 1024.9 hPa Calm     93 % 0.0 mm
00:42 13.1 °C 12.0 °C 1024.9 hPa Calm     93 % 0.0 mm
00:47 13.0 °C 11.9 °C 1024.9 hPa Calm     93 % 0.0 mm
00:52 12.9 °C 12.0 °C 1024.9 hPa Calm     94 % 0.0 mm
00:57 12.7 °C 11.6 °C 1024.9 hPa Calm     93 % 0.0 mm
01:02 12.6 °C 11.7 °C 1024.9 hPa Calm     94 % 0.0 mm
01:07 12.4 °C 11.5 °C 1024.9 hPa Calm     94 % 0.0 mm
01:12 12.2 °C 11.3 °C 1024.9 hPa Calm     94 % 0.0 mm
01:22 11.8 °C 10.9 °C 1024.9 hPa Calm     94 % 0.0 mm
01:27 11.7 °C 10.8 °C 1024.9 hPa Calm     94 % 0.0 mm
01:32 11.7 °C 10.9 °C 1024.9 hPa Calm     95 % 0.0 mm
01:37 11.6 °C 10.8 °C 1024.9 hPa Calm     95 % 0.0 mm
01:42 11.4 °C 10.6 °C 1024.9 hPa Calm     95 % 0.0 mm
01:47 11.3 °C 10.5 °C 1024.6 hPa Calm     95 % 0.0 mm
01:52 11.3 °C 10.5 °C 1024.9 hPa Calm     95 % 0.0 mm
01:57 11.2 °C 10.4 °C 1024.9 hPa Calm     95 % 0.0 mm
02:02 11.2 °C 10.6 °C 1024.6 hPa Calm     96 % 0.0 mm
02:07 11.3 °C 10.7 °C 1024.6 hPa Calm     96 % 0.0 mm
02:12 11.3 °C 10.7 °C 1024.6 hPa Calm     96 % 0.0 mm
02:17 11.2 °C 10.6 °C 1024.6 hPa Calm     96 % 0.0 mm
02:22 11.2 °C 10.6 °C 1024.6 hPa Calm     96 % 0.0 mm
02:27 11.1 °C 10.3 °C 1024.6 hPa Calm     95 % 0.0 mm
02:32 10.9 °C 10.1 °C 1024.6 hPa Calm     95 % 0.0 mm
02:37 10.8 °C 10.0 °C 1024.3 hPa Calm     95 % 0.0 mm
02:42 10.7 °C 9.9 °C 1024.3 hPa Calm     95 % 0.0 mm
02:47 10.7 °C 10.1 °C 1024.3 hPa Calm     96 % 0.0 mm
02:52 10.7 °C 10.1 °C 1024.3 hPa Calm     96 % 0.0 mm
02:57 10.6 °C 10.0 °C 1024.3 hPa Calm     96 % 0.0 mm
03:02 10.6 °C 10.0 °C 1024.3 hPa Calm     96 % 0.0 mm
03:12 10.4 °C 9.8 °C 1024.3 hPa Calm     96 % 0.0 mm
03:17 10.5 °C 9.9 °C 1024.3 hPa Calm     96 % 0.0 mm
03:22 10.4 °C 9.8 °C 1024.3 hPa Calm     96 % 0.0 mm
03:32 10.2 °C 9.6 °C 1024.3 hPa Calm     96 % 0.0 mm
03:37 10.1 °C 9.5 °C 1024.3 hPa Calm     96 % 0.0 mm
03:42 10.0 °C 9.4 °C 1024.3 hPa Calm     96 % 0.0 mm
03:47 9.9 °C 9.3 °C 1024.3 hPa Calm     96 % 0.0 mm
03:52 9.8 °C 9.2 °C 1024.3 hPa Calm     96 % 0.0 mm
03:57 9.7 °C 9.1 °C 1023.9 hPa Calm     96 % 0.0 mm
04:02 9.6 °C 9.0 °C 1023.9 hPa Calm     96 % 0.0 mm
04:07 9.6 °C 9.0 °C 1023.9 hPa Calm     96 % 0.0 mm
04:12 9.4 °C 8.8 °C 1024.3 hPa Calm     96 % 0.0 mm
04:17 9.4 °C 8.8 °C 1024.3 hPa Calm     96 % 0.0 mm
04:22 9.4 °C 8.8 °C 1023.9 hPa Calm     96 % 0.0 mm
04:27 9.3 °C 8.7 °C 1023.9 hPa Calm     96 % 0.0 mm
04:32 9.3 °C 8.7 °C 1023.9 hPa Calm     96 % 0.0 mm
04:37 9.3 °C 8.8 °C 1023.9 hPa Calm     97 % 0.0 mm
04:42 9.4 °C 8.9 °C 1023.9 hPa Calm     97 % 0.0 mm
04:47 9.4 °C 8.9 °C 1023.9 hPa Calm     97 % 0.0 mm
04:52 9.4 °C 8.9 °C 1023.9 hPa Calm     97 % 0.0 mm
04:57 9.3 °C 8.7 °C 1023.9 hPa Calm     96 % 0.0 mm
05:02 9.3 °C 8.8 °C 1023.9 hPa Calm     97 % 0.0 mm
05:12 9.3 °C 8.8 °C 1023.9 hPa Calm     97 % 0.0 mm
05:17 9.3 °C 8.8 °C 1023.6 hPa Calm     97 % 0.0 mm
05:22 9.4 °C 8.9 °C 1023.6 hPa Calm     97 % 0.0 mm
05:27 9.4 °C 8.9 °C 1023.6 hPa Calm     97 % 0.0 mm
05:32 9.4 °C 8.9 °C 1023.6 hPa Calm     97 % 0.0 mm
05:37 9.3 °C 8.8 °C 1023.6 hPa Calm     97 % 0.0 mm
05:42 9.3 °C 8.8 °C 1023.6 hPa Calm     97 % 0.0 mm
05:47 9.4 °C 8.9 °C 1023.6 hPa Calm     97 % 0.0 mm
05:52 9.4 °C 8.9 °C 1023.6 hPa Calm     97 % 0.0 mm
06:02 9.3 °C 8.8 °C 1023.6 hPa Calm     97 % 0.0 mm
06:12 9.4 °C 8.9 °C 1023.2 hPa Calm     97 % 0.0 mm
06:17 9.5 °C 9.0 °C 1023.6 hPa Calm     97 % 0.0 mm
06:22 9.6 °C 9.1 °C 1023.6 hPa Calm     97 % 0.0 mm
06:32 9.7 °C 9.2 °C 1023.6 hPa Calm     97 % 0.0 mm
06:37 9.8 °C 9.3 °C 1023.6 hPa Calm     97 % 0.0 mm
06:47 9.8 °C 9.3 °C 1023.6 hPa Calm     97 % 0.0 mm
07:02 10.1 °C 9.6 °C 1023.6 hPa Calm     97 % 0.0 mm
07:12 10.4 °C 9.9 °C 1023.2 hPa Calm     97 % 0.0 mm
07:17 10.5 °C 10.0 °C 1023.6 hPa Calm     97 % 0.0 mm
07:22 10.7 °C 10.2 °C 1023.2 hPa Calm     97 % 0.0 mm
07:27 10.8 °C 10.3 °C 1023.2 hPa Calm     97 % 0.0 mm
07:32 10.9 °C 10.4 °C 1023.6 hPa Calm     97 % 0.0 mm
07:42 11.3 °C 11.0 °C 1023.6 hPa Calm     98 % 0.0 mm
07:47 11.3 °C 10.8 °C 1023.6 hPa Calm     97 % 0.0 mm
07:52 11.5 °C 11.0 °C 1023.6 hPa Calm   1.6 km/h 97 % 0.0 mm
07:57 11.7 °C 11.4 °C 1023.6 hPa Calm   1.6 km/h 98 % 0.0 mm
08:02 11.9 °C 11.6 °C 1023.6 hPa Calm   1.6 km/h 98 % 0.0 mm
08:12 12.2 °C 11.7 °C 1023.6 hPa Calm   1.6 km/h 97 % 0.0 mm
08:17 12.3 °C 11.8 °C 1023.6 hPa Calm   1.6 km/h 97 % 0.0 mm
08:22 12.3 °C 11.8 °C 1023.6 hPa Calm   1.6 km/h 97 % 0.0 mm
08:27 12.4 °C 11.9 °C 1023.6 hPa Calm   1.6 km/h 97 % 0.0 mm
08:32 12.4 °C 11.9 °C 1023.6 hPa Calm   1.6 km/h 97 % 0.0 mm
08:37 12.6 °C 12.1 °C 1023.6 hPa Calm   1.6 km/h 97 % 0.0 mm
08:42 12.7 °C 12.2 °C 1023.6 hPa Calm   1.6 km/h 97 % 0.0 mm
08:47 12.7 °C 12.1 °C 1023.6 hPa Calm   1.6 km/h 96 % 0.0 mm
08:52 12.8 °C 12.3 °C 1023.6 hPa Calm   3.2 km/h 97 % 0.0 mm
08:57 12.8 °C 12.2 °C 1023.6 hPa Calm   3.2 km/h 96 % 0.0 mm
09:02 13.0 °C 12.4 °C 1023.2 hPa Calm   3.2 km/h 96 % 0.0 mm
09:12 13.1 °C 12.3 °C 1023.2 hPa Calm   3.2 km/h 95 % 0.0 mm
09:17 13.3 °C 12.7 °C 1023.2 hPa Calm   4.8 km/h 96 % 0.0 mm
09:22 13.6 °C 13.0 °C 1023.2 hPa Calm   4.8 km/h 96 % 0.0 mm
09:32 13.8 °C 12.9 °C 1023.2 hPa Calm   4.8 km/h 94 % 0.0 mm
09:42 14.3 °C 13.3 °C 1023.2 hPa WSW 3.2 km/h 4.8 km/h 94 % 0.0 mm
09:52 14.7 °C 13.6 °C 1023.2 hPa Calm   4.8 km/h 93 % 0.0 mm
09:57 15.1 °C 13.8 °C 1023.2 hPa WSW 1.6 km/h 4.8 km/h 92 % 0.0 mm
10:12 16.1 °C 14.1 °C 1023.2 hPa SW 1.6 km/h 6.4 km/h 88 % 0.0 mm
10:17 15.9 °C 13.7 °C 1023.2 hPa SW 3.2 km/h 6.4 km/h 87 % 0.0 mm
10:22 16.1 °C 14.1 °C 1022.9 hPa SW 4.8 km/h 11.3 km/h 88 % 0.0 mm
10:32 16.2 °C 13.9 °C 1022.9 hPa West 1.6 km/h 11.3 km/h 86 % 0.0 mm
10:42 16.5 °C 14.3 °C 1022.9 hPa West 4.8 km/h 8.0 km/h 87 % 0.0 mm
10:47 16.9 °C 14.4 °C 1022.9 hPa WSW 1.6 km/h 8.0 km/h 85 % 0.0 mm
10:52 17.5 °C 15.1 °C 1022.9 hPa West 3.2 km/h 8.0 km/h 86 % 0.0 mm
10:57 17.9 °C 14.8 °C 1022.9 hPa SW 3.2 km/h 6.4 km/h 82 % 0.0 mm
11:02 18.1 °C 15.2 °C 1022.9 hPa WSW 3.2 km/h 8.0 km/h 83 % 0.0 mm
11:07 18.3 °C 14.6 °C 1022.9 hPa WSW 6.4 km/h 8.0 km/h 79 % 0.0 mm
11:12 18.4 °C 15.1 °C 1022.9 hPa West 1.6 km/h 9.7 km/h 81 % 0.0 mm
11:17 18.6 °C 15.1 °C 1022.9 hPa WSW 8.0 km/h 9.7 km/h 80 % 0.0 mm
11:22 18.6 °C 14.5 °C 1022.9 hPa WSW 4.8 km/h 9.7 km/h 77 % 0.0 mm
11:32 18.7 °C 14.8 °C 1022.9 hPa Calm   11.3 km/h 78 % 0.0 mm
11:42 19.5 °C 15.4 °C 1022.6 hPa SW 3.2 km/h 9.7 km/h 77 % 0.0 mm
11:47 19.5 °C 15.4 °C 1022.6 hPa WSW 4.8 km/h 8.0 km/h 77 % 0.0 mm
11:52 19.4 °C 15.1 °C 1022.6 hPa WSW 8.0 km/h 11.3 km/h 76 % 0.0 mm
11:57 19.2 °C 14.9 °C 1022.6 hPa WSW 1.6 km/h 11.3 km/h 76 % 0.0 mm
12:02 19.1 °C 14.6 °C 1022.6 hPa Calm   11.3 km/h 75 % 0.0 mm
12:07 19.1 °C 14.6 °C 1022.6 hPa WSW 1.6 km/h 11.3 km/h 75 % 0.0 mm
12:12 18.9 °C 14.6 °C 1022.2 hPa Calm   8.0 km/h 76 % 0.0 mm
12:17 18.8 °C 14.5 °C 1022.2 hPa Calm   8.0 km/h 76 % 0.0 mm
12:22 18.8 °C 14.5 °C 1022.2 hPa WSW 1.6 km/h 9.7 km/h 76 % 0.0 mm
12:32 18.8 °C 14.3 °C 1022.2 hPa WSW 1.6 km/h 9.7 km/h 75 % 0.0 mm
12:42 19.1 °C 14.8 °C 1022.2 hPa WSW 3.2 km/h 14.5 km/h 76 % 0.0 mm
12:47 19.3 °C 14.3 °C 1022.2 hPa SW 6.4 km/h 11.3 km/h 73 % 0.0 mm
12:52 19.5 °C 14.7 °C 1022.2 hPa WSW 6.4 km/h 11.3 km/h 74 % 0.0 mm
12:57 19.8 °C 14.8 °C 1021.9 hPa SW 9.7 km/h 11.3 km/h 73 % 0.0 mm
13:07 19.7 °C 14.5 °C 1021.9 hPa WSW 6.4 km/h 9.7 km/h 72 % 0.0 mm
13:12 19.6 °C 14.6 °C 1021.9 hPa West 1.6 km/h 9.7 km/h 73 % 0.0 mm
13:17 19.8 °C 14.4 °C 1021.9 hPa WSW 6.4 km/h 9.7 km/h 71 % 0.0 mm
13:22 19.7 °C 13.9 °C 1021.9 hPa WSW 8.0 km/h 11.3 km/h 69 % 0.0 mm
13:27 19.4 °C 14.0 °C 1021.9 hPa WSW 6.4 km/h 11.3 km/h 71 % 0.0 mm
13:32 19.4 °C 14.0 °C 1021.9 hPa WSW 1.6 km/h 12.9 km/h 71 % 0.0 mm
13:37 19.4 °C 14.4 °C 1021.9 hPa West 3.2 km/h 12.9 km/h 73 % 0.0 mm
13:42 19.3 °C 14.1 °C 1021.9 hPa WSW 4.8 km/h 12.9 km/h 72 % 0.0 mm
13:47 19.4 °C 14.2 °C 1021.6 hPa WSW 4.8 km/h 9.7 km/h 72 % 0.0 mm
13:52 19.6 °C 14.4 °C 1021.6 hPa NW 3.2 km/h 9.7 km/h 72 % 0.0 mm
13:57 19.9 °C 15.1 °C 1021.6 hPa West 3.2 km/h 9.7 km/h 74 % 0.0 mm
14:02 19.9 °C 14.5 °C 1021.6 hPa West 3.2 km/h 9.7 km/h 71 % 0.0 mm
14:12 19.2 °C 13.8 °C 1021.6 hPa SW 3.2 km/h 12.9 km/h 71 % 0.0 mm
14:17 19.0 °C 14.0 °C 1021.6 hPa WSW 1.6 km/h 12.9 km/h 73 % 0.0 mm
14:22 18.9 °C 14.2 °C 1021.6 hPa West 1.6 km/h 9.7 km/h 74 % 0.0 mm
14:27 18.8 °C 14.3 °C 1021.2 hPa Calm   9.7 km/h 75 % 0.0 mm
14:32 18.9 °C 14.4 °C 1021.2 hPa SW 6.4 km/h 9.7 km/h 75 % 0.0 mm
14:37 19.1 °C 14.6 °C 1021.2 hPa SSW 3.2 km/h 9.7 km/h 75 % 0.0 mm
14:42 19.1 °C 14.1 °C 1021.2 hPa WSW 9.7 km/h 9.7 km/h 73 % 0.0 mm
14:47 19.1 °C 14.4 °C 1021.2 hPa WSW 6.4 km/h 9.7 km/h 74 % 0.0 mm
14:52 19.0 °C 14.0 °C 1021.2 hPa SW 3.2 km/h 12.9 km/h 73 % 0.0 mm
14:57 18.8 °C 14.1 °C 1021.2 hPa WSW 1.6 km/h 12.9 km/h 74 % 0.0 mm
15:02 18.8 °C 14.3 °C 1021.2 hPa SW 4.8 km/h 12.9 km/h 75 % 0.0 mm
15:07 18.8 °C 13.9 °C 1021.2 hPa SW 6.4 km/h 11.3 km/h 73 % 0.0 mm
15:17 18.7 °C 13.8 °C 1021.2 hPa West 4.8 km/h 12.9 km/h 73 % 0.0 mm
15:22 18.7 °C 13.3 °C 1021.2 hPa WSW 3.2 km/h 12.9 km/h 71 % 0.0 mm
15:27 18.6 °C 13.9 °C 1021.2 hPa WSW 3.2 km/h 12.9 km/h 74 % 0.0 mm
15:32 18.6 °C 13.5 °C 1021.2 hPa WSW 1.6 km/h 12.9 km/h 72 % 0.0 mm
15:37 18.5 °C 13.6 °C 1021.2 hPa WSW 1.6 km/h 12.9 km/h 73 % 0.0 mm
15:42 18.4 °C 13.7 °C 1021.2 hPa SW 1.6 km/h 8.0 km/h 74 % 0.0 mm
15:47 18.4 °C 13.5 °C 1021.2 hPa West 1.6 km/h 8.0 km/h 73 % 0.0 mm
15:52 18.4 °C 13.5 °C 1021.2 hPa SW 6.4 km/h 8.0 km/h 73 % 0.0 mm
15:57 18.3 °C 13.6 °C 1021.2 hPa WSW 3.2 km/h 9.7 km/h 74 % 0.0 mm
16:02 18.2 °C 14.1 °C 1021.2 hPa West 3.2 km/h 9.7 km/h 77 % 0.0 mm
16:07 17.9 °C 14.2 °C 1021.2 hPa WSW 3.2 km/h 9.7 km/h 79 % 0.0 mm
16:12 17.6 °C 14.3 °C 1021.2 hPa Calm   9.7 km/h 81 % 0.0 mm
16:17 17.3 °C 14.2 °C 1021.2 hPa WSW 9.7 km/h 9.7 km/h 82 % 0.0 mm
16:27 16.7 °C 14.2 °C 1021.2 hPa SW 6.4 km/h 11.3 km/h 85 % 0.0 mm
16:32 16.5 °C 14.3 °C 1021.2 hPa Calm   9.7 km/h 87 % 0.0 mm
16:37 16.4 °C 14.4 °C 1021.2 hPa WNW 1.6 km/h 9.7 km/h 88 % 0.0 mm
16:42 16.3 °C 14.5 °C 1021.2 hPa Calm   9.7 km/h 89 % 0.0 mm
16:47 16.2 °C 14.4 °C 1021.2 hPa WSW 1.6 km/h 9.7 km/h 89 % 0.0 mm
16:52 16.2 °C 14.7 °C 1020.9 hPa SW 3.2 km/h 9.7 km/h 91 % 0.0 mm
16:57 16.1 °C 14.6 °C 1020.9 hPa West 1.6 km/h 9.7 km/h 91 % 0.0 mm
17:02 16.0 °C 14.7 °C 1020.9 hPa WSW 1.6 km/h 9.7 km/h 92 % 0.3 mm
17:07 15.9 °C 14.8 °C 1020.9 hPa Calm   9.7 km/h 93 % 0.3 mm
17:12 15.8 °C 14.5 °C 1020.9 hPa WSW 1.6 km/h 9.7 km/h 92 % 0.3 mm
17:17 15.7 °C 14.6 °C 1020.9 hPa Calm   8.0 km/h 93 % 0.3 mm
17:22 15.7 °C 14.6 °C 1020.9 hPa Calm   9.7 km/h 93 % 0.3 mm
17:27 15.8 °C 14.8 °C 1020.5 hPa Calm   9.7 km/h 94 % 0.5 mm
17:32 15.8 °C 14.8 °C 1020.5 hPa Calm   9.7 km/h 94 % 0.5 mm
17:37 15.8 °C 14.8 °C 1020.5 hPa West 1.6 km/h 4.8 km/h 94 % 0.5 mm
17:42 15.9 °C 14.9 °C 1020.5 hPa West 1.6 km/h 4.8 km/h 94 % 0.8 mm
17:47 15.9 °C 14.9 °C 1020.5 hPa WSW 1.6 km/h 4.8 km/h 94 % 0.8 mm
17:52 15.9 °C 15.1 °C 1020.5 hPa WSW 1.6 km/h 3.2 km/h 95 % 0.8 mm
17:57 15.9 °C 15.1 °C 1020.2 hPa Calm   3.2 km/h 95 % 0.5 mm
18:02 16.0 °C 15.2 °C 1020.2 hPa Calm   4.8 km/h 95 % 0.8 mm
18:07 16.0 °C 15.2 °C 1020.2 hPa Calm   4.8 km/h 95 % 0.8 mm
18:12 16.0 °C 15.2 °C 1020.2 hPa Calm   3.2 km/h 95 % 0.8 mm
18:17 16.1 °C 15.3 °C 1020.2 hPa Calm   3.2 km/h 95 % 0.8 mm
18:22 16.2 °C 15.4 °C 1020.2 hPa SW 1.6 km/h 3.2 km/h 95 % 0.8 mm
18:32 16.4 °C 15.8 °C 1020.2 hPa Calm   4.8 km/h 96 % 0.8 mm
18:42 16.4 °C 15.6 °C 1019.9 hPa Calm   6.4 km/h 95 % 0.5 mm
18:52 16.4 °C 15.6 °C 1019.9 hPa South 3.2 km/h 4.8 km/h 95 % 0.5 mm
18:57 16.4 °C 15.6 °C 1019.9 hPa Calm   4.8 km/h 95 % 0.3 mm
19:02 16.4 °C 15.6 °C 1019.9 hPa Calm   4.8 km/h 95 % 0.3 mm
19:12 16.3 °C 15.5 °C 1019.9 hPa Calm   6.4 km/h 95 % 0.3 mm
19:17 16.3 °C 15.5 °C 1019.9 hPa Calm   6.4 km/h 95 % 0.3 mm
19:22 16.3 °C 15.5 °C 1019.9 hPa Calm   6.4 km/h 95 % 0.0 mm
19:27 16.3 °C 15.3 °C 1019.9 hPa WSW 1.6 km/h 6.4 km/h 94 % 0.0 mm
19:32 16.3 °C 15.5 °C 1019.9 hPa Calm   6.4 km/h 95 % 0.0 mm
19:37 16.4 °C 15.6 °C 1019.9 hPa SW 3.2 km/h 6.4 km/h 95 % 0.0 mm
19:42 16.4 °C 15.6 °C 1019.5 hPa West 3.2 km/h 6.4 km/h 95 % 0.0 mm
19:47 16.4 °C 15.6 °C 1019.9 hPa Calm   6.4 km/h 95 % 0.0 mm
19:52 16.3 °C 15.5 °C 1019.5 hPa Calm   6.4 km/h 95 % 0.0 mm
19:57 16.3 °C 15.5 °C 1019.5 hPa West 1.6 km/h 4.8 km/h 95 % 0.0 mm
20:02 16.3 °C 15.5 °C 1019.9 hPa SW 3.2 km/h 4.8 km/h 95 % 0.0 mm
20:07 16.3 °C 15.5 °C 1019.9 hPa Calm   4.8 km/h 95 % 0.0 mm
20:12 16.3 °C 15.5 °C 1019.9 hPa SW 1.6 km/h 6.4 km/h 95 % 0.0 mm
20:17 16.2 °C 15.4 °C 1019.9 hPa SW 3.2 km/h 6.4 km/h 95 % 0.3 mm
20:22 16.2 °C 15.4 °C 1019.9 hPa Calm   6.4 km/h 95 % 0.3 mm
20:27 16.2 °C 15.4 °C 1019.9 hPa WSW 3.2 km/h 4.8 km/h 95 % 0.3 mm
20:32 16.2 °C 15.6 °C 1019.9 hPa SW 1.6 km/h 4.8 km/h 96 % 0.5 mm
20:42 16.2 °C 15.6 °C 1019.5 hPa Calm   4.8 km/h 96 % 0.8 mm
20:47 16.2 °C 15.6 °C 1019.5 hPa Calm   4.8 km/h 96 % 0.8 mm
20:52 16.2 °C 15.6 °C 1019.9 hPa WSW 1.6 km/h 4.8 km/h 96 % 0.8 mm
20:57 16.2 °C 15.6 °C 1019.9 hPa Calm   4.8 km/h 96 % 0.8 mm
21:02 16.2 °C 15.6 °C 1019.9 hPa Calm   4.8 km/h 96 % 0.8 mm
21:12 16.2 °C 15.6 °C 1019.9 hPa WSW 1.6 km/h 6.4 km/h 96 % 1.0 mm
21:17 16.2 °C 15.6 °C 1019.9 hPa SW 4.8 km/h 6.4 km/h 96 % 0.8 mm
21:22 16.2 °C 15.6 °C 1019.9 hPa Calm   6.4 km/h 96 % 0.8 mm
21:32 16.2 °C 15.6 °C 1019.9 hPa SW 1.6 km/h 4.8 km/h 96 % 0.8 mm
21:37 16.2 °C 15.6 °C 1019.9 hPa WSW 6.4 km/h 6.4 km/h 96 % 0.5 mm
21:42 16.2 °C 15.6 °C 1019.9 hPa WSW 3.2 km/h 8.0 km/h 96 % 0.5 mm
21:52 16.1 °C 15.5 °C 1019.9 hPa WSW 1.6 km/h 11.3 km/h 96 % 0.5 mm
21:57 16.1 °C 15.5 °C 1019.9 hPa WSW 3.2 km/h 11.3 km/h 96 % 0.5 mm
22:02 16.1 °C 15.5 °C 1019.9 hPa WSW 4.8 km/h 11.3 km/h 96 % 0.5 mm
22:12 16.0 °C 15.4 °C 1019.9 hPa SW 8.0 km/h 11.3 km/h 96 % 0.5 mm
22:17 16.0 °C 15.5 °C 1019.9 hPa West 4.8 km/h 9.7 km/h 97 % 0.5 mm
22:22 16.0 °C 15.5 °C 1019.9 hPa Calm   9.7 km/h 97 % 0.5 mm
22:27 16.0 °C 15.5 °C 1019.9 hPa West 1.6 km/h 11.3 km/h 97 % 0.5 mm
22:32 16.0 °C 15.5 °C 1019.9 hPa Calm   11.3 km/h 97 % 0.3 mm
22:37 16.0 °C 15.5 °C 1020.2 hPa SW 1.6 km/h 11.3 km/h 97 % 0.3 mm
22:42 16.0 °C 15.5 °C 1020.2 hPa Calm   12.9 km/h 97 % 0.3 mm
22:47 16.0 °C 15.5 °C 1020.2 hPa West 1.6 km/h 12.9 km/h 97 % 0.3 mm
22:52 15.9 °C 15.4 °C 1020.2 hPa WSW 3.2 km/h 12.9 km/h 97 % 0.3 mm
22:57 15.9 °C 15.4 °C 1020.2 hPa WSW 4.8 km/h 8.0 km/h 97 % 0.3 mm
23:07 16.0 °C 15.5 °C 1020.2 hPa SW 4.8 km/h 9.7 km/h 97 % 0.3 mm
23:12 16.0 °C 15.5 °C 1020.2 hPa SSW 3.2 km/h 9.7 km/h 97 % 0.5 mm
23:17 16.0 °C 15.5 °C 1020.2 hPa ENE 6.4 km/h 9.7 km/h 97 % 0.5 mm
23:22 16.0 °C 15.5 °C 1020.5 hPa SW 4.8 km/h 9.7 km/h 97 % 0.5 mm
23:27 15.9 °C 15.4 °C 1020.5 hPa WSW 1.6 km/h 12.9 km/h 97 % 0.5 mm
23:32 15.9 °C 15.3 °C 1020.5 hPa West 1.6 km/h 12.9 km/h 96 % 0.5 mm
23:37 15.8 °C 15.2 °C 1020.5 hPa SSW 3.2 km/h 12.9 km/h 96 % 0.5 mm
23:42 15.8 °C 15.2 °C 1020.5 hPa SW 4.8 km/h 12.9 km/h 96 % 0.5 mm
23:47 15.8 °C 15.2 °C 1020.5 hPa Calm   9.7 km/h 96 % 0.5 mm
23:52 15.8 °C 15.2 °C 1020.5 hPa Calm   8.0 km/h 96 % 0.5 mm
23:57 15.8 °C 15.2 °C 1020.5 hPa WSW 1.6 km/h 8.0 km/h 96 % 0.5 mm
Meteo18
Compliments of Weather Underground - 4 mb

Script developed by  Jim McMurry - jmcmurry@mwt.net Adapted for the template by  Wim van der Kuil - Leuven-Template.eu

You find our weather info also at:

European Weather Network

Weather Underground

Equipment we use:

Weather-station
Davis Vue

Weather-program
Meteohub

Weather-server
Raspberry PI 2 B+

Provider
1 and 1

Davis Vue

Meteohub

Raspberry PI 2 B+

1 and 1